This is the latest recevied weather packets stored in our database for station/object W3AJR. If no packets are shown the sender has not sent any weather packets the latest 1 day(s).
| Time | Temp. | Humidity | Pressure | Rain* | Wind** | Luminosity | Snow |
|---|---|---|---|---|---|---|---|
| 1777966032 | 15.56° C | 73% | 1010.7 hPa | 0 mm | 1.34 m/s, 180° | 0 W/m² | - |
| 1777965728 | 15.56° C | 72% | 1010.9 hPa | 0 mm | 0.89 m/s, 204° | 0 W/m² | - |
| 1777965424 | 16.11° C | 70% | 1010.9 hPa | 0 mm | 1.34 m/s, 190° | 0 W/m² | - |
| 1777965122 | 16.11° C | 70% | 1010.8 hPa | 0 mm | 2.24 m/s, 199° | 0 W/m² | - |
| 1777964819 | 15.56° C | 71% | 1010.6 hPa | 0 mm | 1.34 m/s, 202° | 0 W/m² | - |
| 1777964515 | 15.56° C | 71% | 1010.6 hPa | 0 mm | 1.79 m/s, 164° | 0 W/m² | - |
| 1777964211 | 15.56° C | 72% | 1010.7 hPa | 0 mm | 1.34 m/s, 191° | 0 W/m² | - |
| 1777963908 | 15.56° C | 73% | 1010.6 hPa | 0 mm | 0.45 m/s, 209° | 0 W/m² | - |
| 1777963604 | 15.56° C | 72% | 1010.7 hPa | 0 mm | 0 m/s | 0 W/m² | - |
| 1777963303 | 15° C | 74% | 1010.7 hPa | 0 mm | 0.45 m/s, 210° | 0 W/m² | - |
| 1777963000 | 14.44° C | 76% | 1010.7 hPa | 0 mm | 0 m/s | 0 W/m² | - |
| 1777962696 | 15° C | 74% | 1010.5 hPa | 0 mm | 0 m/s | 0 W/m² | - |
| 1777962392 | 15.56° C | 74% | 1010.6 hPa | 0 mm | 0 m/s | 0 W/m² | - |
| 1777962090 | 16.11° C | 72% | 1010.7 hPa | 0 mm | 0 m/s | 0 W/m² | - |
| 1777961787 | 16.11° C | 70% | 1010.7 hPa | 0 mm | 0.45 m/s, 209° | 0 W/m² | - |
| 1777961485 | 16.11° C | 70% | 1010.4 hPa | 0 mm | 0.89 m/s, 188° | 0 W/m² | - |
| 1777961182 | 16.11° C | 70% | 1010.6 hPa | 0 mm | 0.45 m/s, 201° | 0 W/m² | - |
| 1777960879 | 16.11° C | 71% | 1010.4 hPa | 0 mm | 0.45 m/s, 194° | 0 W/m² | - |
| 1777960574 | 16.11° C | 71% | 1010.6 hPa | 0 mm | 0.89 m/s, 217° | 0 W/m² | - |
| 1777960271 | 16.11° C | 72% | 1010.5 hPa | 0 mm | 0.45 m/s, 204° | 0 W/m² | - |
| 1777959968 | 16.11° C | 72% | 1010.6 hPa | 0 mm | 0.45 m/s, 242° | 0 W/m² | - |
| 1777959666 | 16.11° C | 72% | 1010.6 hPa | 0 mm | 1.34 m/s, 180° | 0 W/m² | - |
| 1777959363 | 16.11° C | 72% | 1010.4 hPa | 0 mm | 0.45 m/s, 209° | 0 W/m² | - |
| 1777959059 | 16.67° C | 71% | 1010.5 hPa | 0 mm | 0.89 m/s, 181° | 0 W/m² | - |
| 1777958756 | 16.67° C | 71% | 1010.5 hPa | 0 mm | 0.89 m/s, 197° | 0 W/m² | - |
* Rain latest hour (hover to see other rain measurements)
** Current wind speed in m/s (hover to see current wind gust speed)